Deer Park, WI

11:21 AM CST on December 20, 2014 (GMT -0600)
New Richmond Municipal | Change Station
CLOSE
Current Station
Airport
Location: New Richmond,
Elevation: 997 ft
Nearby Weather Stations

Elev 997 ft 45.15 °N, 92.53 °W | Updated 21 minutes ago

Overcast
Overcast
31 °F
Feels Like 24 °F
N
7
Wind Variable Wind from SSE

Today
High -- | Low -- °F
--% Chance of Precip.
Yesterday
High -- | Low -- °F
Precip. -- in
7:44 AM 4:29 PM
Waning Crescent, 2% visible
Pressure 30.16 in
Visibility 5.0 miles
Clouds Overcast 900 ft
Windchill 24 °F
Dew Point 28 °F
Humidity 90%
Rainfall 0.00 in
Snow Depth Not available.
UV 0 out of 12
Pollen .10 out of 12
Air Quality Not available.
Flu Activity Not available.
METAR KRNH 201700Z AUTO 16006KT 5SM BR OVC009 M01/M02 A3016 RMK AO2 T10071021

More Conditions Fewer Conditions

Pressure 30.16 in
Visibility 5.0 miles
Clouds Overcast 900 ft
Windchill 24 °F
Dew Point 28 °F
Humidity 90%
Rainfall 0.00 in
Snow Depth Not available.
UV 0 out of 12
Pollen .10 out of 12
Air Quality Not available.
Flu Activity Not available.
METAR KRNH 201700Z AUTO 16006KT 5SM BR OVC009 M01/M02 A3016 RMK AO2 T10071021

More Conditions Fewer Conditions

10-Day Weather Forecast

Almanac

Astronomy

Dec. 20, 2014 Rise Set
Actual Time
Civil Twilight
Nautical Twilight
Astronomical Twilight
Moon
Length of Visible Light
Length of Day
Tomorrow will be .
, % of the Moon is Illuminated

Today's Extremes

State Highs State Lows

Community

WunderPhotos

Upload Photos

1,779,226 photos uploaded!

WunderBlogs® & News

Nearby

Air Quality

  Air Quality AQ Index Pollutant
Not available.

Snow Depth

Station Depth Elevation

Earthquake Activity

City Distance Mag. Time & Date
Minimum magnitude displayed is 2.5.

Coastal Water Temperatures

Place Temperature

Nearby Weather Stations